createdAt,value
2016-08-07T00:00:34.221Z,24.18
2016-08-07T00:01:34.588Z,24.11
2016-08-07T00:02:34.236Z,24.19
2016-08-07T00:03:34.240Z,24.22
2016-08-07T00:04:34.267Z,24.21
2016-08-07T00:05:34.254Z,24.18
2016-08-07T00:06:34.254Z,24.19
2016-08-07T00:07:34.270Z,24.19
2016-08-07T00:08:34.269Z,24.15
2016-08-07T00:09:34.273Z,24.19
2016-08-07T00:10:34.283Z,24.22
2016-08-07T00:11:34.286Z,24.19
2016-08-07T00:12:34.301Z,24.17
2016-08-07T00:13:34.299Z,24.14
2016-08-07T00:14:34.312Z,24.17
2016-08-07T00:15:34.314Z,24.09
2016-08-07T00:16:34.321Z,24.14
2016-08-07T00:17:34.317Z,24.21
2016-08-07T00:18:34.331Z,24.21
2016-08-07T00:19:34.335Z,24.15
2016-08-07T00:20:34.334Z,24.24
2016-08-07T00:21:34.340Z,24.17
2016-08-07T00:22:34.354Z,24.21
2016-08-07T00:23:34.369Z,24.21
2016-08-07T00:24:34.358Z,24.17
2016-08-07T00:25:34.360Z,24.11
2016-08-07T00:26:34.386Z,24.12
2016-08-07T00:27:34.395Z,24.17
2016-08-07T00:28:34.385Z,24.17
2016-08-07T00:29:34.390Z,24.19
2016-08-07T00:30:34.418Z,24.19
2016-08-07T00:31:34.401Z,24.11
2016-08-07T00:32:34.402Z,24.19
2016-08-07T00:33:34.410Z,24.15
2016-08-07T00:34:34.418Z,24.19
2016-08-07T00:35:34.440Z,24.17
2016-08-07T00:36:34.427Z,24.15
2016-08-07T00:37:34.433Z,24.15
2016-08-07T00:38:34.485Z,24.11
2016-08-07T00:39:34.443Z,24.18
2016-08-07T00:40:34.458Z,24.14
2016-08-07T00:41:34.462Z,24.14
2016-08-07T00:42:34.464Z,24.21
2016-08-07T00:43:34.468Z,24.18
2016-08-07T00:44:34.470Z,24.12
2016-08-07T00:45:34.540Z,24.08
2016-08-07T00:46:34.483Z,24.14
2016-08-07T00:47:34.490Z,24.12
2016-08-07T00:48:34.495Z,24.09
2016-08-07T00:49:34.501Z,24.18
2016-08-07T00:50:34.511Z,24.18
2016-08-07T00:51:34.515Z,24.19
2016-08-07T00:52:34.517Z,24.17
2016-08-07T00:53:34.552Z,24.11
2016-08-07T00:54:34.531Z,24.12
2016-08-07T00:55:34.545Z,24.11
2016-08-07T00:56:34.543Z,24.11
2016-08-07T00:57:34.549Z,24.15
2016-08-07T00:58:34.564Z,24.19
2016-08-07T00:59:34.569Z,24.09
2016-08-07T01:00:35.290Z,24.17
2016-08-07T01:01:34.569Z,24.15
2016-08-07T01:02:34.617Z,24.17
2016-08-07T01:03:34.595Z,24.12
2016-08-07T01:04:34.612Z,24.15
2016-08-07T01:05:34.618Z,24.09
2016-08-07T01:06:34.671Z,24.18
2016-08-07T01:07:34.603Z,24.08
2016-08-07T01:08:34.611Z,24.19
2016-08-07T01:09:34.615Z,24.15
2016-08-07T01:10:34.625Z,24.18
2016-08-07T01:11:34.710Z,24.12
2016-08-07T01:12:34.635Z,24.08
2016-08-07T01:13:34.645Z,24.15
2016-08-07T01:14:34.657Z,24.18
2016-08-07T01:15:34.718Z,24.18
2016-08-07T01:16:35.518Z,24.18
2016-08-07T01:17:34.665Z,24.09
2016-08-07T01:18:35.388Z,24.11
2016-08-07T01:19:34.669Z,24.12
2016-08-07T01:20:34.688Z,24.18
2016-08-07T01:21:34.690Z,24.15
2016-08-07T01:22:34.694Z,24.15
2016-08-07T01:23:34.702Z,24.15
2016-08-07T01:24:34.716Z,24.12
2016-08-07T01:25:34.722Z,24.12
2016-08-07T01:26:34.718Z,24.19
2016-08-07T01:27:34.724Z,24.17
2016-08-07T01:28:34.725Z,24.12
2016-08-07T01:29:34.731Z,24.12
2016-08-07T01:30:35.623Z,24.12
2016-08-07T01:31:34.745Z,24.12
2016-08-07T01:32:34.748Z,24.11
2016-08-07T01:33:34.756Z,24.12
2016-08-07T01:34:34.778Z,24.09
2016-08-07T01:35:34.776Z,24.14
2016-08-07T01:36:35.689Z,24.17
2016-08-07T01:37:34.780Z,24.12
2016-08-07T01:38:34.834Z,24.09
2016-08-07T01:39:34.809Z,24.12
2016-08-07T01:40:34.799Z,24.12
2016-08-07T01:41:34.811Z,24.12
2016-08-07T01:42:34.807Z,24.12
2016-08-07T01:43:34.816Z,24.12
2016-08-07T01:44:34.818Z,24.18
2016-08-07T01:45:34.825Z,24.15
2016-08-07T01:46:34.839Z,24.12
2016-08-07T01:47:34.840Z,24.08
2016-08-07T01:48:34.875Z,24.11
2016-08-07T01:49:34.848Z,24.08
2016-08-07T01:50:34.857Z,24.07
2016-08-07T01:51:34.867Z,24.11
2016-08-07T01:52:34.864Z,24.04
2016-08-07T01:53:34.889Z,24.09
2016-08-07T01:54:34.880Z,24.08
2016-08-07T01:55:34.894Z,24.09
2016-08-07T01:56:34.888Z,24.08
2016-08-07T01:57:36.240Z,24.14
2016-08-07T01:58:34.901Z,24.04
2016-08-07T01:59:34.906Z,24.07
2016-08-07T02:00:34.916Z,24.07
2016-08-07T02:01:34.925Z,24.07
2016-08-07T02:02:34.925Z,24.07
2016-08-07T02:03:34.928Z,24.07
2016-08-07T02:04:34.942Z,24.04
2016-08-07T02:05:36.487Z,24.08
2016-08-07T02:06:35.671Z,24.08
2016-08-07T02:07:34.954Z,24.07
2016-08-07T02:08:35.014Z,24.07
2016-08-07T02:09:34.966Z,24.07
2016-08-07T02:10:36.161Z,24.09
2016-08-07T02:11:34.972Z,24.07
2016-08-07T02:12:34.980Z,24.04
2016-08-07T02:13:34.986Z,24.03
2016-08-07T02:14:35.001Z,24.07
2016-08-07T02:15:34.998Z,24.08
2016-08-07T02:16:35.005Z,24.07
2016-08-07T02:17:35.049Z,24.08
2016-08-07T02:18:35.009Z,24.08
2016-08-07T02:19:35.018Z,24.07
2016-08-07T02:20:35.031Z,24.11
2016-08-07T02:21:35.032Z,24.08
2016-08-07T02:22:35.055Z,24.08
2016-08-07T02:23:35.044Z,24.07
2016-08-07T02:24:35.053Z,24.07
2016-08-07T02:25:35.853Z,24.07
2016-08-07T02:26:35.070Z,24.11
2016-08-07T02:27:35.068Z,24.11
2016-08-07T02:28:35.071Z,24.11
2016-08-07T02:29:35.095Z,24.09
2016-08-07T02:30:35.852Z,24.08
2016-08-07T02:31:35.106Z,24.04
2016-08-07T02:32:35.111Z,24.11
2016-08-07T02:33:35.100Z,24.09
2016-08-07T02:34:35.102Z,24.07
2016-08-07T02:35:35.840Z,24.02
2016-08-07T02:36:35.134Z,24.09
2016-08-07T02:37:35.124Z,24.07
2016-08-07T02:38:35.129Z,24.07
2016-08-07T02:39:35.132Z,24.09
2016-08-07T02:40:35.147Z,24.08
2016-08-07T02:41:35.873Z,24.07
2016-08-07T02:42:35.151Z,24
2016-08-07T02:43:35.213Z,24.09
2016-08-07T02:44:35.189Z,24.12
2016-08-07T02:45:35.184Z,24.02
2016-08-07T02:46:35.172Z,24.08
2016-08-07T02:47:35.185Z,24.12
2016-08-07T02:48:35.190Z,24.08
2016-08-07T02:49:35.208Z,24.12
2016-08-07T02:50:35.198Z,24.11
2016-08-07T02:51:36.421Z,24.11
2016-08-07T02:52:35.213Z,24.09
2016-08-07T02:53:36.236Z,24.08
2016-08-07T02:54:36.131Z,24.07
2016-08-07T02:55:35.293Z,24.07
2016-08-07T02:56:35.230Z,24.11
2016-08-07T02:57:35.246Z,24.09
2016-08-07T02:58:35.260Z,24.08
2016-08-07T02:59:35.261Z,24
2016-08-07T03:00:35.258Z,24.11
2016-08-07T03:01:35.263Z,24.09
2016-08-07T03:02:35.264Z,24.08
2016-08-07T03:03:37.739Z,24.03
2016-08-07T03:04:35.278Z,24.04
2016-08-07T03:05:35.296Z,24.08
2016-08-07T03:06:36.770Z,24.09
2016-08-07T03:07:35.302Z,24.08
2016-08-07T03:08:35.309Z,24.11
2016-08-07T03:09:35.307Z,24.09
2016-08-07T03:10:35.310Z,24.07
2016-08-07T03:11:35.321Z,24.03
2016-08-07T03:12:35.328Z,24.07
2016-08-07T03:13:35.331Z,24.09
2016-08-07T03:14:35.332Z,24.02
2016-08-07T03:15:35.341Z,24.11
2016-08-07T03:16:35.351Z,24.09
2016-08-07T03:17:35.362Z,24.04
2016-08-07T03:18:35.356Z,24.11
2016-08-07T03:19:35.374Z,24.08
2016-08-07T03:20:35.370Z,24.02
2016-08-07T03:21:36.591Z,24.02
2016-08-07T03:22:35.379Z,24
2016-08-07T03:23:35.387Z,24.09
2016-08-07T03:24:35.390Z,24.08
2016-08-07T03:25:35.403Z,24.09
2016-08-07T03:26:35.404Z,24.09
2016-08-07T03:27:35.414Z,24.02
2016-08-07T03:28:35.414Z,24.07
2016-08-07T03:29:35.420Z,24
2016-08-07T03:30:35.432Z,24.02
2016-08-07T03:31:35.448Z,24.09
2016-08-07T03:32:35.437Z,23.99
2016-08-07T03:33:35.448Z,24.04
2016-08-07T03:34:35.445Z,24.02
2016-08-07T03:35:35.466Z,24
2016-08-07T03:37:35.533Z,23.99
2016-08-07T03:38:35.468Z,24
2016-08-07T03:39:35.478Z,24.02
2016-08-07T03:40:35.483Z,24.09
2016-08-07T03:41:35.494Z,24.02
2016-08-07T03:42:35.628Z,24.02
2016-08-07T03:43:35.504Z,24.08
2016-08-07T03:44:35.502Z,24.07
2016-08-07T03:45:35.510Z,24
2016-08-07T03:46:35.531Z,23.97
2016-08-07T03:47:35.540Z,23.96
2016-08-07T03:48:35.561Z,24
2016-08-07T03:49:35.535Z,24.03
2016-08-07T03:50:35.537Z,24.03
2016-08-07T03:52:35.553Z,24.04
2016-08-07T03:53:35.563Z,24
2016-08-07T03:54:35.561Z,23.97
2016-08-07T03:55:35.568Z,23.94
2016-08-07T03:56:35.570Z,24.07
2016-08-07T03:57:35.577Z,23.93
2016-08-07T03:58:35.586Z,24.03
2016-08-07T03:59:35.604Z,24.04
2016-08-07T04:00:35.600Z,23.94
2016-08-07T04:01:35.601Z,23.93
2016-08-07T04:02:35.609Z,24
2016-08-07T04:03:35.618Z,24
2016-08-07T04:04:35.617Z,23.97
2016-08-07T04:05:35.624Z,24
2016-08-07T04:07:35.640Z,24.02
2016-08-07T04:08:35.642Z,24.02
2016-08-07T04:09:35.650Z,23.97
2016-08-07T04:10:35.656Z,24.02
2016-08-07T04:11:35.680Z,23.97
2016-08-07T04:12:35.662Z,24.02
2016-08-07T04:13:35.671Z,23.93
2016-08-07T04:14:35.671Z,24
2016-08-07T04:15:35.685Z,24
2016-08-07T04:16:35.701Z,24.03
2016-08-07T04:17:35.690Z,24
2016-08-07T04:18:35.822Z,23.94
2016-08-07T04:19:35.702Z,24.03
2016-08-07T04:20:35.711Z,24.02
2016-08-07T04:21:35.714Z,24
2016-08-07T04:22:35.724Z,23.97
2016-08-07T04:23:35.733Z,23.99
2016-08-07T04:24:35.914Z,24
2016-08-07T04:25:35.737Z,23.96
2016-08-07T04:26:36.461Z,23.96
2016-08-07T04:27:35.752Z,24.03
2016-08-07T04:28:35.759Z,24.02
2016-08-07T04:29:35.765Z,23.97
2016-08-07T04:30:35.769Z,24.09
2016-08-07T04:31:35.770Z,24.02
2016-08-07T04:32:35.779Z,23.96
2016-08-07T04:33:35.787Z,24
2016-08-07T04:34:35.791Z,24.03
2016-08-07T04:35:36.012Z,23.97
2016-08-07T04:36:36.081Z,24
2016-08-07T04:37:35.823Z,23.97
2016-08-07T04:38:35.810Z,23.99
2016-08-07T04:39:35.816Z,23.99
2016-08-07T04:40:35.865Z,24
2016-08-07T04:41:35.829Z,23.99
2016-08-07T04:42:35.844Z,24.03
2016-08-07T04:43:35.846Z,24.11
2016-08-07T04:44:35.843Z,24.04
2016-08-07T04:45:35.855Z,23.97
2016-08-07T04:46:35.859Z,24
2016-08-07T04:47:35.861Z,24
2016-08-07T04:48:37.793Z,23.99
2016-08-07T04:49:35.876Z,24
2016-08-07T04:50:35.875Z,24.11
2016-08-07T04:51:35.902Z,24.11
2016-08-07T04:52:35.893Z,24
2016-08-07T04:53:35.894Z,23.97
2016-08-07T04:54:35.907Z,24
2016-08-07T04:55:35.908Z,24
2016-08-07T04:56:35.918Z,24.11
2016-08-07T04:57:36.072Z,23.99
2016-08-07T04:58:35.928Z,24.08
2016-08-07T04:59:35.928Z,24
2016-08-07T05:00:35.940Z,24.03
2016-08-07T05:01:35.951Z,24.03
2016-08-07T05:02:35.965Z,24.02
2016-08-07T05:03:36.290Z,24.03
2016-08-07T05:04:35.963Z,24.08
2016-08-07T05:05:35.971Z,24.08
2016-08-07T05:06:35.968Z,24.09
2016-08-07T05:07:35.995Z,24.03
2016-08-07T05:08:35.983Z,24.08
2016-08-07T05:09:35.987Z,24.03
2016-08-07T05:10:35.991Z,24.08
2016-08-07T05:11:36.008Z,24.03
2016-08-07T05:12:36.014Z,24.03
2016-08-07T05:13:36.008Z,24.11
2016-08-07T05:14:36.020Z,24
2016-08-07T05:15:36.046Z,24.11
2016-08-07T05:16:36.081Z,24.11
2016-08-07T05:17:36.190Z,24.14
2016-08-07T05:18:36.047Z,24.09
2016-08-07T05:19:36.166Z,24.11
2016-08-07T05:20:36.049Z,24.08
2016-08-07T05:21:36.060Z,24.09
2016-08-07T05:22:36.064Z,24.07
2016-08-07T05:23:36.063Z,24.08
2016-08-07T05:24:36.073Z,24.11
2016-08-07T05:25:36.104Z,24.11
2016-08-07T05:26:36.081Z,24.08
2016-08-07T05:27:36.091Z,24.07
2016-08-07T05:28:36.096Z,24.03
2016-08-07T05:29:36.100Z,24.04
2016-08-07T05:30:36.106Z,24.09
2016-08-07T05:31:36.109Z,24.08
2016-08-07T05:32:36.131Z,24.12
2016-08-07T05:33:36.122Z,24.08
2016-08-07T05:34:36.854Z,24.04
2016-08-07T05:35:36.405Z,24.07
2016-08-07T05:36:36.856Z,24.09
2016-08-07T05:37:36.145Z,24.07
2016-08-07T05:38:36.156Z,24.08
2016-08-07T05:39:36.218Z,24.07
2016-08-07T05:40:36.164Z,24.08
2016-08-07T05:41:36.168Z,24.04
2016-08-07T05:42:36.177Z,24.14
2016-08-07T05:43:36.182Z,24.09
2016-08-07T05:44:36.197Z,24.11
2016-08-07T05:45:36.199Z,24.14
2016-08-07T05:46:36.198Z,24.09
2016-08-07T05:47:36.203Z,24.11
2016-08-07T05:48:36.210Z,24.22
2016-08-07T05:49:36.218Z,24.12
2016-08-07T05:50:36.226Z,24.15
2016-08-07T05:51:36.242Z,24.14
2016-08-07T05:52:36.233Z,24.15
2016-08-07T05:53:36.241Z,24.17
2016-08-07T05:54:36.246Z,24.14
2016-08-07T05:55:36.271Z,24.18
2016-08-07T05:56:36.257Z,24.15
2016-08-07T05:57:36.259Z,24.18
2016-08-07T05:58:36.272Z,24.08
2016-08-07T05:59:36.272Z,24.09
2016-08-07T06:00:36.281Z,24.15
2016-08-07T06:01:36.293Z,24.18
2016-08-07T06:02:36.289Z,24.15
2016-08-07T06:03:36.291Z,24.15
2016-08-07T06:04:36.351Z,24.18
2016-08-07T06:05:36.369Z,24.15
2016-08-07T06:06:36.313Z,24.11
2016-08-07T06:07:36.319Z,24.19
2016-08-07T06:08:36.331Z,24.18
2016-08-07T06:09:36.326Z,24.12
2016-08-07T06:10:36.335Z,24.14
2016-08-07T06:11:36.351Z,24.15
2016-08-07T06:12:38.510Z,24.22
2016-08-07T06:13:36.351Z,24.19
2016-08-07T06:14:36.358Z,24.09
2016-08-07T06:15:36.362Z,24.18
2016-08-07T06:16:36.375Z,24.24
2016-08-07T06:17:36.376Z,24.18
2016-08-07T06:18:36.382Z,24.18
2016-08-07T06:19:36.388Z,24.21
2016-08-07T06:20:36.413Z,24.14
2016-08-07T06:21:36.402Z,24.19
2016-08-07T06:22:36.404Z,24.21
2016-08-07T06:23:36.416Z,24.21
2016-08-07T06:24:36.418Z,24.24
2016-08-07T06:25:37.107Z,24.17
2016-08-07T06:26:36.429Z,24.15
2016-08-07T06:27:36.436Z,24.15
2016-08-07T06:28:36.436Z,24.18
2016-08-07T06:29:36.442Z,24.24
2016-08-07T06:30:36.452Z,24.18
2016-08-07T06:31:36.463Z,24.15
2016-08-07T06:32:36.509Z,24.17
2016-08-07T06:33:36.478Z,24.17
2016-08-07T06:34:40.510Z,24.21
2016-08-07T06:35:36.518Z,24.24
2016-08-07T06:36:36.485Z,24.27
2016-08-07T06:37:36.491Z,24.15
2016-08-07T06:38:36.500Z,24.22
2016-08-07T06:39:36.502Z,24.24
2016-08-07T06:40:36.512Z,24.09
2016-08-07T06:41:36.513Z,24.21
2016-08-07T06:42:36.518Z,24.18
2016-08-07T06:43:36.545Z,24.15
2016-08-07T06:44:36.544Z,24.11
2016-08-07T06:45:36.537Z,24.21
2016-08-07T06:46:36.785Z,24.21
2016-08-07T06:47:36.579Z,24.15
2016-08-07T06:48:36.645Z,24.14
2016-08-07T06:49:37.298Z,24.15
2016-08-07T06:50:36.610Z,24.19
2016-08-07T06:51:36.574Z,24.15
2016-08-07T06:52:38.050Z,24.11
2016-08-07T06:53:36.580Z,24.09
2016-08-07T06:54:36.588Z,24.12
2016-08-07T06:55:36.601Z,24.14
2016-08-07T06:56:36.599Z,24.19
2016-08-07T06:57:36.608Z,24.17
2016-08-07T06:58:36.624Z,24.19
2016-08-07T06:59:36.612Z,24.19
2016-08-07T07:00:37.351Z,24.12
2016-08-07T07:01:36.644Z,24.19
2016-08-07T07:02:36.659Z,24.19
2016-08-07T07:03:36.651Z,24.14
2016-08-07T07:04:36.647Z,24.14
2016-08-07T07:05:36.651Z,24.11
2016-08-07T07:06:36.658Z,24.19
2016-08-07T07:07:37.878Z,24.14
2016-08-07T07:08:36.684Z,24.09
2016-08-07T07:09:36.721Z,24.19
2016-08-07T07:10:36.679Z,24.15
2016-08-07T07:11:36.684Z,24.18
2016-08-07T07:12:36.699Z,24.21
2016-08-07T07:13:36.694Z,24.18
2016-08-07T07:14:36.722Z,24.14
2016-08-07T07:15:36.710Z,24.11
2016-08-07T07:16:36.711Z,24.08
2016-08-07T07:17:36.775Z,24.14
2016-08-07T07:18:36.735Z,24.12
2016-08-07T07:19:36.737Z,24.15
2016-08-07T07:20:36.740Z,24.15
2016-08-07T07:21:37.478Z,24.12
2016-08-07T07:22:39.190Z,24.17
2016-08-07T07:23:36.754Z,24.18
2016-08-07T07:24:36.787Z,24.09
2016-08-07T07:25:36.768Z,24.08
2016-08-07T07:26:36.778Z,24.17
2016-08-07T07:27:36.776Z,24.17
2016-08-07T07:28:36.787Z,24.22
2016-08-07T07:29:40.853Z,24.11
2016-08-07T07:30:36.794Z,24.11
2016-08-07T07:31:36.841Z,24.12
2016-08-07T07:32:37.019Z,24.09
2016-08-07T07:33:37.559Z,24.18
2016-08-07T07:34:36.818Z,24.09
2016-08-07T07:35:36.822Z,24.08
2016-08-07T07:36:36.826Z,24.11
2016-08-07T07:38:36.843Z,24.17
2016-08-07T07:39:36.894Z,24.12
2016-08-07T07:40:36.851Z,24.09
2016-08-07T07:41:36.856Z,24.12
2016-08-07T07:42:36.862Z,24.11
2016-08-07T07:43:36.882Z,24.21
2016-08-07T07:44:36.873Z,24.15
2016-08-07T07:45:36.899Z,24.15
2016-08-07T07:46:36.882Z,24.12
2016-08-07T07:47:36.889Z,24.21
2016-08-07T08:02:04.012Z,24.24
2016-08-07T08:03:04.015Z,24.18
2016-08-07T08:04:04.021Z,24.24
2016-08-07T08:05:04.026Z,24.18
2016-08-07T08:06:04.076Z,24.26
2016-08-07T08:07:04.042Z,24.14
2016-08-07T08:08:04.055Z,24.15
2016-08-07T08:09:04.045Z,24.14
2016-08-07T08:10:04.790Z,24.14
2016-08-07T08:11:04.070Z,24.22
2016-08-07T08:12:04.069Z,24.19
2016-08-07T08:13:04.074Z,24.19
2016-08-07T08:14:04.075Z,24.11
2016-08-07T08:15:04.082Z,24.18
2016-08-07T08:16:04.088Z,24.26
2016-08-07T08:17:04.091Z,24.18
2016-08-07T08:18:04.110Z,24.19
2016-08-07T08:19:04.102Z,24.21
2016-08-07T08:20:04.111Z,24.09
2016-08-07T08:21:04.126Z,24.11
2016-08-07T08:22:04.121Z,24.19
2016-08-07T08:23:04.122Z,24.14
2016-08-07T08:24:04.137Z,24.14
2016-08-07T08:25:04.141Z,24.3
2016-08-07T08:26:04.147Z,24.22
2016-08-07T08:27:04.159Z,24.27
2016-08-07T08:28:04.155Z,24.18
2016-08-07T08:29:04.163Z,24.22
2016-08-07T08:30:04.181Z,24.21
2016-08-07T08:31:04.171Z,24.26
2016-08-07T08:32:04.179Z,24.24
2016-08-07T08:33:04.191Z,24.18
2016-08-07T08:34:04.193Z,24.19
2016-08-07T08:35:04.196Z,24.24
2016-08-07T08:36:04.201Z,24.21
2016-08-07T08:37:04.220Z,24.09
2016-08-07T08:38:06.646Z,24.17
2016-08-07T08:39:04.223Z,24.27
2016-08-07T08:40:04.273Z,24.17
2016-08-07T08:41:04.232Z,24.21
2016-08-07T08:42:04.236Z,24.26
2016-08-07T08:43:04.245Z,24.15
2016-08-07T08:44:04.251Z,24.14
2016-08-07T08:45:04.253Z,24.18
2016-08-07T08:46:04.263Z,24.26
2016-08-07T08:47:04.262Z,24.24
2016-08-07T08:48:04.268Z,24.24
2016-08-07T08:49:04.281Z,24.26
2016-08-07T08:50:04.284Z,24.24
2016-08-07T08:51:04.295Z,24.29
2016-08-07T08:52:04.300Z,24.26
2016-08-07T08:54:04.302Z,24.24
2016-08-07T08:55:04.312Z,24.22
2016-08-07T08:56:04.319Z,24.27
2016-08-07T08:57:04.323Z,24.32
2016-08-07T08:58:04.325Z,24.24
2016-08-07T08:59:04.334Z,24.29
2016-08-07T09:00:04.346Z,24.29
2016-08-07T09:01:04.346Z,24.24
2016-08-07T09:02:04.353Z,24.26
2016-08-07T09:03:04.365Z,24.29
2016-08-07T09:04:04.360Z,24.3
2016-08-07T09:05:04.369Z,24.22
2016-08-07T09:06:04.379Z,24.3
2016-08-07T09:07:04.391Z,24.32
2016-08-07T09:09:04.393Z,24.33
2016-08-07T09:10:04.404Z,24.29
2016-08-07T09:11:04.402Z,24.27
2016-08-07T09:12:04.415Z,24.27
2016-08-07T09:13:04.418Z,24.3
2016-08-07T09:14:04.419Z,24.32
2016-08-07T09:15:04.428Z,24.32
2016-08-07T09:16:04.454Z,24.27
2016-08-07T09:17:04.438Z,24.27
2016-08-07T09:18:04.447Z,24.29
2016-08-07T09:19:04.454Z,24.26
2016-08-07T09:20:04.465Z,24.3
2016-08-07T09:21:04.466Z,24.32
2016-08-07T09:22:04.470Z,24.36
2016-08-07T09:23:04.478Z,24.26
2016-08-07T09:24:04.479Z,24.37
2016-08-07T09:25:04.487Z,24.36
2016-08-07T09:26:04.495Z,24.32
2016-08-07T09:27:04.495Z,24.33
2016-08-07T09:28:04.511Z,24.33
2016-08-07T09:29:04.517Z,24.37
2016-08-07T09:30:04.523Z,24.36
2016-08-07T09:31:04.520Z,24.36
2016-08-07T09:32:05.632Z,24.39
2016-08-07T09:33:04.535Z,24.39
2016-08-07T09:34:04.547Z,24.32
2016-08-07T09:35:04.549Z,24.36
2016-08-07T09:36:04.562Z,24.42
2016-08-07T09:37:04.556Z,24.33
2016-08-07T09:38:04.561Z,24.37
2016-08-07T09:39:04.576Z,24.4
2016-08-07T09:40:04.630Z,24.39
2016-08-07T09:41:04.580Z,24.29
2016-08-07T09:42:05.308Z,24.33
2016-08-07T09:43:04.591Z,24.44
2016-08-07T09:44:04.599Z,24.34
2016-08-07T09:45:04.606Z,24.36
2016-08-07T09:46:04.609Z,24.4
2016-08-07T09:47:04.618Z,24.4
2016-08-07T09:48:04.625Z,24.37
2016-08-07T09:49:04.625Z,24.4
2016-08-07T09:50:04.635Z,24.33
2016-08-07T09:51:04.643Z,24.39
2016-08-07T09:52:04.642Z,24.36
2016-08-07T09:53:04.668Z,24.4
2016-08-07T09:54:04.657Z,24.44
2016-08-07T09:55:05.383Z,24.44
2016-08-07T09:56:04.671Z,24.44
2016-08-07T09:57:04.675Z,24.37
2016-08-07T09:58:04.682Z,24.44
2016-08-07T09:59:04.693Z,24.42
2016-08-07T10:00:04.694Z,24.42
2016-08-07T10:01:04.719Z,24.48
2016-08-07T10:02:04.704Z,24.37
2016-08-07T10:03:04.712Z,24.42
2016-08-07T10:04:04.720Z,24.46
2016-08-07T10:05:04.726Z,24.37
2016-08-07T10:06:04.727Z,24.39
2016-08-07T10:07:04.735Z,24.42
2016-08-07T10:08:04.743Z,24.39
2016-08-07T10:09:04.747Z,24.37
2016-08-07T10:10:04.749Z,24.39
2016-08-07T10:11:04.760Z,24.39
2016-08-07T10:12:04.763Z,24.45
2016-08-07T10:13:04.766Z,24.39
2016-08-07T10:14:04.788Z,24.42
2016-08-07T10:15:04.778Z,24.46
2016-08-07T10:16:04.803Z,24.44
2016-08-07T10:17:04.804Z,24.39
2016-08-07T10:18:04.801Z,24.46
2016-08-07T10:19:04.815Z,24.4
2016-08-07T10:20:04.810Z,24.39
2016-08-07T10:21:04.839Z,24.44
2016-08-07T10:22:04.820Z,24.39
2016-08-07T10:23:04.831Z,24.37
2016-08-07T10:24:04.837Z,24.37
2016-08-07T10:25:04.838Z,24.4
2016-08-07T10:26:04.861Z,24.44
2016-08-07T10:27:04.851Z,24.42
2016-08-07T10:28:04.857Z,24.42
2016-08-07T10:29:04.866Z,24.44
2016-08-07T10:30:04.866Z,24.48
2016-08-07T10:31:04.876Z,24.44
2016-08-07T10:32:04.894Z,24.48
2016-08-07T10:33:04.884Z,24.44
2016-08-07T10:34:04.896Z,24.49
2016-08-07T10:35:04.896Z,24.36
2016-08-07T10:36:04.907Z,24.45
2016-08-07T10:37:04.932Z,24.48
2016-08-07T10:38:04.917Z,24.42
2016-08-07T10:39:05.440Z,24.46
2016-08-07T10:40:04.978Z,24.45
2016-08-07T10:41:04.936Z,24.46
2016-08-07T10:42:04.941Z,24.46
2016-08-07T10:43:04.948Z,24.44
2016-08-07T10:44:04.950Z,24.45
2016-08-07T10:45:04.959Z,24.44
2016-08-07T10:46:04.965Z,24.42
2016-08-07T10:47:04.967Z,24.45
2016-08-07T10:48:04.995Z,24.4
2016-08-07T10:49:04.986Z,24.45
2016-08-07T10:50:04.989Z,24.44
2016-08-07T10:51:04.993Z,24.4
2016-08-07T10:52:05.008Z,24.44
2016-08-07T10:53:05.007Z,24.4
2016-08-07T10:54:05.013Z,24.39
2016-08-07T10:55:05.018Z,24.51
2016-08-07T10:56:05.023Z,24.49
2016-08-07T10:57:05.035Z,24.46
2016-08-07T10:58:05.036Z,24.48
2016-08-07T10:59:05.042Z,24.4
2016-08-07T11:00:05.051Z,24.51
2016-08-07T11:01:05.059Z,24.51
2016-08-07T11:02:05.062Z,24.48
2016-08-07T11:03:05.063Z,24.48
2016-08-07T11:04:05.070Z,24.52
2016-08-07T11:05:05.075Z,24.51
2016-08-07T11:06:05.081Z,24.51
2016-08-07T11:07:05.088Z,24.51
2016-08-07T11:08:05.091Z,24.46
2016-08-07T11:09:05.102Z,24.55
2016-08-07T11:10:05.112Z,24.52
2016-08-07T11:11:05.114Z,24.46
2016-08-07T11:12:05.117Z,24.48
2016-08-07T11:13:05.128Z,24.52
2016-08-07T11:14:05.131Z,24.51
2016-08-07T11:15:05.135Z,24.51
2016-08-07T11:16:05.143Z,24.48
2016-08-07T11:17:05.146Z,24.49
2016-08-07T11:18:05.167Z,24.48
2016-08-07T11:19:05.162Z,24.49
2016-08-07T11:20:05.166Z,24.49
2016-08-07T11:21:05.172Z,24.52
2016-08-07T11:22:05.180Z,24.46
2016-08-07T11:23:05.185Z,24.55
2016-08-07T11:24:05.206Z,24.54
2016-08-07T11:25:05.195Z,24.46
2016-08-07T11:26:05.202Z,24.46
2016-08-07T11:27:05.207Z,24.45
2016-08-07T11:28:05.217Z,24.48
2016-08-07T11:29:05.235Z,24.46
2016-08-07T11:30:05.229Z,24.45
2016-08-07T11:31:05.230Z,24.46
2016-08-07T11:32:05.240Z,24.45
2016-08-07T11:33:05.242Z,24.45
2016-08-07T11:34:05.248Z,24.48
2016-08-07T11:35:05.253Z,24.48
2016-08-07T11:36:05.257Z,24.58
2016-08-07T11:37:05.267Z,24.45
2016-08-07T11:38:05.273Z,24.45
2016-08-07T11:39:05.298Z,24.44
2016-08-07T11:40:05.389Z,24.48
2016-08-07T11:41:05.291Z,24.42
2016-08-07T11:42:05.550Z,24.45
2016-08-07T11:43:05.298Z,24.48
2016-08-07T11:44:05.311Z,24.45
2016-08-07T11:45:05.314Z,24.46
2016-08-07T11:46:05.319Z,24.49
2016-08-07T11:47:05.324Z,24.56
2016-08-07T11:48:05.329Z,24.49
2016-08-07T11:49:05.338Z,24.54
2016-08-07T11:50:05.341Z,24.54
2016-08-07T11:51:05.346Z,24.51
2016-08-07T11:52:05.363Z,24.58
2016-08-07T11:53:05.361Z,24.51
2016-08-07T11:54:05.378Z,24.59
2016-08-07T11:55:05.376Z,24.45
2016-08-07T11:56:05.378Z,24.58
2016-08-07T11:57:05.384Z,24.56
2016-08-07T11:58:05.402Z,24.51
2016-08-07T11:59:05.400Z,24.61
2016-08-07T12:00:05.402Z,24.61
2016-08-07T12:01:05.408Z,24.61
2016-08-07T12:02:05.426Z,24.52
2016-08-07T12:03:05.423Z,24.45
2016-08-07T12:04:05.427Z,24.55
2016-08-07T12:05:05.440Z,24.54
2016-08-07T12:06:05.437Z,24.51
2016-08-07T12:07:05.446Z,24.55
2016-08-07T12:08:05.450Z,24.56
2016-08-07T12:09:05.454Z,24.54
2016-08-07T12:10:05.464Z,24.63
2016-08-07T12:11:05.489Z,24.59
2016-08-07T12:12:05.477Z,24.55
2016-08-07T12:13:05.480Z,24.61
2016-08-07T12:14:05.491Z,24.58
2016-08-07T12:15:05.491Z,24.61
2016-08-07T12:16:05.513Z,24.56
2016-08-07T12:17:05.503Z,24.54
2016-08-07T12:18:06.246Z,24.51
2016-08-07T12:19:05.517Z,24.63
2016-08-07T12:20:05.522Z,24.52
2016-08-07T12:21:05.527Z,24.58
2016-08-07T12:22:05.536Z,24.58
2016-08-07T12:23:05.542Z,24.58
2016-08-07T12:25:05.553Z,24.58
2016-08-07T12:26:05.563Z,24.63
2016-08-07T12:27:05.566Z,24.55
2016-08-07T12:28:05.570Z,24.59
2016-08-07T12:29:05.576Z,24.54
2016-08-07T12:30:05.597Z,24.56
2016-08-07T12:31:05.595Z,24.58
2016-08-07T12:32:05.595Z,24.58
2016-08-07T12:33:05.601Z,24.54
2016-08-07T12:34:05.620Z,24.56
2016-08-07T12:35:05.612Z,24.61
2016-08-07T12:36:05.624Z,24.58
2016-08-07T12:37:05.622Z,24.54
2016-08-07T12:38:05.633Z,24.59
2016-08-07T12:40:05.641Z,24.54
2016-08-07T12:41:05.655Z,24.63
2016-08-07T12:42:05.651Z,24.56
2016-08-07T12:43:05.660Z,24.51
2016-08-07T12:44:05.664Z,24.56
2016-08-07T12:45:05.684Z,24.64
2016-08-07T12:46:05.686Z,24.59
2016-08-07T12:47:05.691Z,24.56
2016-08-07T12:48:05.689Z,24.61
2016-08-07T12:49:05.696Z,24.55
2016-08-07T12:50:05.737Z,24.63
2016-08-07T12:51:05.722Z,24.64
2016-08-07T12:52:05.713Z,24.59
2016-08-07T12:53:05.722Z,24.59
2016-08-07T12:54:05.728Z,24.61
2016-08-07T12:55:05.727Z,24.67
2016-08-07T12:56:05.737Z,24.58
2016-08-07T12:57:05.750Z,24.58
2016-08-07T12:58:05.750Z,24.64
2016-08-07T12:59:05.756Z,24.56
2016-08-07T13:00:05.772Z,24.58
2016-08-07T13:01:05.770Z,24.56
2016-08-07T13:02:05.779Z,24.63
2016-08-07T13:03:05.792Z,24.58
2016-08-07T13:04:05.788Z,24.61
2016-08-07T13:05:05.790Z,24.56
2016-08-07T13:06:05.809Z,24.64
2016-08-07T13:07:05.811Z,24.59
2016-08-07T13:08:05.822Z,24.66
2016-08-07T13:09:05.821Z,24.58
2016-08-07T13:10:05.819Z,24.61
2016-08-07T13:11:05.829Z,24.64
2016-08-07T13:12:05.840Z,24.61
2016-08-07T13:13:05.845Z,24.64
2016-08-07T13:14:05.844Z,24.63
2016-08-07T13:15:05.868Z,24.64
2016-08-07T13:16:05.857Z,24.63
2016-08-07T13:17:05.863Z,24.66